This is the latest recevied weather packets stored in our database for station/object JE3XST-13. If no packets are shown the sender has not sent any weather packets the latest 10 day(s).
| Time | Temp. | Humidity | Pressure | Rain* | Wind** | Luminosity | Snow |
|---|---|---|---|---|---|---|---|
| 1787750675 | 30.56° C | 65% | 1008.8 hPa | 0 mm | - | - | - |
| 1787748874 | 30.56° C | 64% | 1009 hPa | 0 mm | - | - | - |
| 1787747077 | 30.56° C | 63% | 1009.2 hPa | 0 mm | - | - | - |
| 1787745277 | 31.11° C | 64% | 1009 hPa | 0 mm | - | - | - |
| 1787743475 | 31.67° C | 62% | 1009.1 hPa | 0 mm | - | - | - |
| 1787741674 | 32.22° C | 61% | 1008.6 hPa | 0 mm | - | - | - |
| 1787739873 | 32.22° C | 60% | 1008.1 hPa | 0 mm | - | - | - |
| 1787738071 | 32.78° C | 58% | 1008 hPa | 0 mm | - | - | - |
| 1787736271 | 33.33° C | 58% | 1008 hPa | 0 mm | - | - | - |
| 1787734470 | 33.33° C | 57% | 1007.9 hPa | 0 mm | - | - | - |
| 1787732670 | 33.89° C | 57% | 1007.8 hPa | 0 mm | - | - | - |
| 1787730870 | 35° C | 52% | 1007.6 hPa | 0 mm | - | - | - |
| 1787729068 | 36.11° C | 46% | 1007.4 hPa | 0 mm | - | - | - |
| 1787727268 | 36.67° C | 47% | 1007.2 hPa | 0 mm | - | - | - |
| 1787725466 | 36.67° C | 51% | 1006.8 hPa | 0 mm | - | - | - |
| 1787723664 | 36.11° C | 53% | 1007.2 hPa | 0 mm | - | - | - |
| 1787721863 | 36.67° C | 53% | 1007.8 hPa | 0 mm | - | - | - |
| 1787721085 | 35.56° C | 54% | 1008 hPa | 0 mm | - | - | - |
| 1787719282 | 36.11° C | 53% | 1008.4 hPa | 0 mm | - | - | - |
| 1787717660 | 35.56° C | 53% | 1008.6 hPa | 0 mm | - | - | - |
| 1787715859 | 35° C | 56% | 1008.6 hPa | 0 mm | - | - | - |
| 1787714059 | 34.44° C | 57% | 1009 hPa | 0 mm | - | - | - |
| 1787712257 | 34.44° C | 56% | 1009 hPa | 0 mm | - | - | - |
| 1787710457 | 34.44° C | 58% | 1009.2 hPa | 0 mm | - | - | - |
| 1787708656 | 33.33° C | 62% | 1009.4 hPa | 0 mm | - | - | - |
* Rain latest hour (hover to see other rain measurements)
** Current wind speed in m/s (hover to see current wind gust speed)